createdAt,value
2022-09-09T00:01:51.932Z,1.20
2022-09-09T00:04:29.351Z,1.40
2022-09-09T00:07:08.097Z,1.42
2022-09-09T00:09:46.355Z,1.65
2022-09-09T00:12:17.748Z,1.45
2022-09-09T00:14:51.563Z,1.25
2022-09-09T00:17:40.806Z,1.00
2022-09-09T00:20:16.389Z,1.40
2022-09-09T00:22:48.997Z,1.55
2022-09-09T00:25:25.592Z,1.48
2022-09-09T00:27:53.606Z,1.10
2022-09-09T00:30:23.520Z,1.30
2022-09-09T00:32:59.136Z,1.50
2022-09-09T00:35:29.523Z,1.42
2022-09-09T00:38:02.205Z,1.50
2022-09-09T00:40:34.455Z,1.52
2022-09-09T00:43:21.946Z,1.38
2022-09-09T00:46:08.276Z,1.40
2022-09-09T00:48:46.569Z,1.95
2022-09-09T00:51:19.982Z,1.73
2022-09-09T00:54:17.503Z,1.80
2022-09-09T00:56:52.099Z,1.77
2022-09-09T00:59:30.350Z,1.80
2022-09-09T01:01:59.322Z,1.30
2022-09-09T01:04:36.322Z,1.33
2022-09-09T01:07:12.213Z,1.65
2022-09-09T01:09:50.880Z,1.58
2022-09-09T01:12:27.883Z,1.60
2022-09-09T01:15:04.255Z,1.73
2022-09-09T01:17:36.521Z,1.60
2022-09-09T01:20:08.891Z,1.80
2022-09-09T01:22:42.343Z,1.77
2022-09-09T01:25:34.358Z,1.33
2022-09-09T01:28:06.828Z,1.98
2022-09-09T01:30:36.062Z,1.35
2022-09-09T01:33:04.247Z,1.77
2022-09-09T01:35:45.134Z,1.70
2022-09-09T01:38:13.439Z,1.95
2022-09-09T01:40:41.388Z,2.08
2022-09-09T01:43:11.241Z,1.92
2022-09-09T01:45:40.232Z,1.83
2022-09-09T01:48:07.982Z,2.05
2022-09-09T01:50:35.764Z,2.00
2022-09-09T01:53:04.602Z,2.40
2022-09-09T01:55:37.538Z,1.70
2022-09-09T01:58:28.024Z,1.77
2022-09-09T02:01:04.100Z,2.50
2022-09-09T02:03:34.675Z,2.17
2022-09-09T02:06:12.657Z,2.05
2022-09-09T02:08:46.387Z,2.45
2022-09-09T02:11:16.669Z,1.98
2022-09-09T02:14:22.686Z,2.05
2022-09-09T02:16:54.562Z,1.80
2022-09-09T02:19:26.699Z,2.28
2022-09-09T02:21:57.461Z,2.30
2022-09-09T02:24:25.379Z,2.25
2022-09-09T02:26:57.930Z,2.42
2022-09-09T02:29:31.624Z,2.38
2022-09-09T02:32:03.949Z,2.38
2022-09-09T02:34:34.207Z,2.55
2022-09-09T02:37:04.697Z,2.42
2022-09-09T02:39:32.657Z,2.72
2022-09-09T02:42:00.740Z,2.50
2022-09-09T02:44:29.815Z,2.88
2022-09-09T02:47:18.618Z,2.75
2022-09-09T02:49:54.329Z,2.83
2022-09-09T02:52:28.210Z,2.42
2022-09-09T02:55:01.861Z,2.33
2022-09-09T02:57:32.960Z,2.97
2022-09-09T03:00:02.787Z,2.90
2022-09-09T03:02:31.277Z,3.03
2022-09-09T03:04:59.438Z,2.75
2022-09-09T03:07:28.333Z,2.65
2022-09-09T03:09:56.186Z,2.35
2022-09-09T03:12:24.049Z,3.28
2022-09-09T03:14:51.799Z,2.85
2022-09-09T03:17:21.198Z,2.65
2022-09-09T03:19:50.587Z,2.88
2022-09-09T03:22:18.618Z,2.58
2022-09-09T03:24:47.610Z,3.03
2022-09-09T03:27:16.256Z,2.60
2022-09-09T03:29:43.982Z,3.13
2022-09-09T03:32:12.027Z,2.80
2022-09-09T03:34:41.331Z,2.47
2022-09-09T03:37:09.156Z,2.67
2022-09-09T03:39:37.129Z,2.15
2022-09-09T03:42:05.409Z,2.38
2022-09-09T03:44:33.196Z,1.83
2022-09-09T03:47:01.602Z,2.35
2022-09-09T03:49:30.259Z,2.40
2022-09-09T03:52:00.089Z,2.30
2022-09-09T03:54:28.232Z,1.92
2022-09-09T03:56:56.941Z,2.13
2022-09-09T03:59:24.735Z,2.03
2022-09-09T04:01:52.768Z,2.00
2022-09-09T04:04:21.224Z,1.60
2022-09-09T04:06:49.630Z,2.25
2022-09-09T04:09:18.703Z,2.03
2022-09-09T04:11:47.100Z,1.60
2022-09-09T04:14:15.232Z,2.20
2022-09-09T04:16:44.050Z,1.38
2022-09-09T04:19:13.497Z,1.55
2022-09-09T04:21:41.721Z,1.65
2022-09-09T04:24:10.193Z,1.42
2022-09-09T04:26:39.621Z,1.52
2022-09-09T04:29:08.562Z,1.75
2022-09-09T04:31:36.468Z,1.85
2022-09-09T04:34:06.265Z,1.45
2022-09-09T04:36:34.162Z,1.77
2022-09-09T04:39:02.550Z,1.80
2022-09-09T04:41:32.471Z,1.52
2022-09-09T04:44:01.841Z,1.60
2022-09-09T04:46:29.738Z,1.08
2022-09-09T04:48:57.643Z,1.60
2022-09-09T04:51:25.758Z,1.15
2022-09-09T04:53:55.035Z,1.13
2022-09-09T04:56:23.334Z,1.00
2022-09-09T04:58:51.226Z,1.83
2022-09-09T05:01:22.857Z,1.15
2022-09-09T05:03:50.961Z,1.45
2022-09-09T05:06:21.822Z,1.30
2022-09-09T05:08:50.386Z,1.60
2022-09-09T05:11:20.199Z,1.30
2022-09-09T05:13:49.016Z,1.40
2022-09-09T05:16:17.047Z,1.40
2022-09-09T05:18:47.735Z,1.40
2022-09-09T05:21:17.309Z,1.10
2022-09-09T05:23:46.431Z,1.23
2022-09-09T05:26:17.652Z,1.17
2022-09-09T05:28:45.956Z,1.10
2022-09-09T05:31:15.070Z,1.20
2022-09-09T05:33:44.035Z,1.10
2022-09-09T05:36:15.044Z,1.00
2022-09-09T05:38:43.196Z,0.90
2022-09-09T05:41:12.378Z,1.15
2022-09-09T05:43:40.878Z,0.82
2022-09-09T05:46:10.794Z,1.27
2022-09-09T05:48:40.797Z,1.73
2022-09-09T05:51:10.641Z,1.13
2022-09-09T05:53:39.933Z,1.17
2022-09-09T05:56:11.125Z,1.40
2022-09-09T05:58:40.109Z,1.08
2022-09-09T06:01:09.778Z,1.02
2022-09-09T06:03:38.971Z,1.70
2022-09-09T06:06:09.150Z,2.00
2022-09-09T06:08:40.589Z,1.27
2022-09-09T06:11:11.565Z,1.13
2022-09-09T06:13:40.584Z,1.77
2022-09-09T06:16:10.176Z,1.10
2022-09-09T06:18:37.994Z,1.02
2022-09-09T06:21:07.661Z,1.05
2022-09-09T06:23:36.674Z,1.40
2022-09-09T06:26:08.923Z,1.63
2022-09-09T06:28:37.925Z,1.20
2022-09-09T06:31:07.545Z,2.00
2022-09-09T06:33:36.792Z,2.00
2022-09-09T06:36:06.071Z,2.25
2022-09-09T06:38:34.040Z,1.75
2022-09-09T06:41:02.875Z,1.42
2022-09-09T06:43:32.121Z,1.23
2022-09-09T06:46:01.253Z,1.50
2022-09-09T06:48:29.933Z,1.10
2022-09-09T06:51:05.585Z,1.30
2022-09-09T06:53:34.922Z,1.02
2022-09-09T06:56:03.155Z,1.45
2022-09-09T06:58:32.328Z,1.83
2022-09-09T07:01:06.784Z,1.65
2022-09-09T07:03:34.777Z,1.88
2022-09-09T07:06:03.029Z,1.52
2022-09-09T07:08:32.207Z,1.60
2022-09-09T07:11:09.037Z,1.48
2022-09-09T07:13:40.731Z,2.05
2022-09-09T07:16:10.672Z,1.70
2022-09-09T07:18:38.538Z,1.90
2022-09-09T07:21:07.418Z,2.10
2022-09-09T07:23:36.621Z,3.75
2022-09-09T07:26:04.892Z,2.67
2022-09-09T07:28:32.709Z,4.07
2022-09-09T07:31:04.014Z,3.60
2022-09-09T07:33:34.218Z,2.20
2022-09-09T07:36:08.079Z,2.40
2022-09-09T07:38:40.519Z,2.70
2022-09-09T07:41:12.619Z,2.83
2022-09-09T07:43:41.517Z,3.10
2022-09-09T07:46:13.020Z,2.40
2022-09-09T07:48:47.379Z,2.25
2022-09-09T07:51:19.671Z,2.20
2022-09-09T07:53:48.736Z,2.50
2022-09-09T07:56:19.634Z,2.20
2022-09-09T07:58:48.481Z,2.00
2022-09-09T08:01:20.811Z,2.75
2022-09-09T08:03:56.567Z,2.08
2022-09-09T08:06:25.957Z,2.42
2022-09-09T08:08:55.791Z,2.40
2022-09-09T08:11:25.138Z,2.45
2022-09-09T08:13:55.398Z,2.25
2022-09-09T08:16:28.076Z,2.30
2022-09-09T08:18:56.269Z,3.20
2022-09-09T08:21:25.849Z,2.33
2022-09-09T08:23:57.947Z,2.97
2022-09-09T08:26:28.825Z,2.65
2022-09-09T08:28:59.132Z,2.65
2022-09-09T08:31:30.259Z,2.03
2022-09-09T08:34:00.237Z,2.63
2022-09-09T08:36:30.726Z,1.63
2022-09-09T08:38:59.772Z,1.90
2022-09-09T08:41:38.739Z,1.75
2022-09-09T08:44:11.786Z,2.08
2022-09-09T08:46:48.982Z,2.10
2022-09-09T08:49:32.198Z,2.08
2022-09-09T08:52:00.403Z,1.58
2022-09-09T08:54:51.090Z,1.60
2022-09-09T08:57:27.643Z,2.53
2022-09-09T08:59:58.540Z,1.73
2022-09-09T09:02:34.855Z,2.30
2022-09-09T09:05:17.847Z,1.50
2022-09-09T09:07:56.484Z,1.75
2022-09-09T09:10:42.153Z,1.13
2022-09-09T09:13:16.808Z,1.65
2022-09-09T09:15:48.950Z,1.70
2022-09-09T09:18:19.577Z,1.48
2022-09-09T09:20:54.971Z,1.77
2022-09-09T09:23:25.328Z,1.30
2022-09-09T09:25:58.479Z,1.35
2022-09-09T09:28:28.868Z,1.38
2022-09-09T09:31:00.086Z,1.38
2022-09-09T09:33:34.354Z,1.38
2022-09-09T09:36:03.083Z,1.67
2022-09-09T09:41:30.354Z,1.20
2022-09-09T09:43:58.136Z,1.30
2022-09-09T09:46:28.346Z,1.35
2022-09-09T09:49:01.999Z,1.00
2022-09-09T09:51:33.110Z,1.75
2022-09-09T09:54:17.294Z,1.50
2022-09-09T09:56:46.759Z,1.33
2022-09-09T09:59:41.851Z,1.48
2022-09-09T10:02:21.863Z,1.63
2022-09-09T10:05:02.321Z,1.55
2022-09-09T10:07:30.869Z,1.17
2022-09-09T10:09:59.843Z,1.90
2022-09-09T10:12:43.134Z,1.15
2022-09-09T10:15:29.303Z,1.40
2022-09-09T10:18:05.390Z,1.65
2022-09-09T10:20:45.589Z,2.08
2022-09-09T10:23:26.469Z,1.33
2022-09-09T10:26:05.497Z,0.98
2022-09-09T10:28:51.079Z,1.20
2022-09-09T10:31:24.875Z,1.52
2022-09-09T10:33:58.518Z,1.17
2022-09-09T10:36:28.790Z,1.25
2022-09-09T10:39:03.256Z,0.90
2022-09-09T10:41:44.391Z,1.00
2022-09-09T10:44:31.024Z,1.13
2022-09-09T10:47:16.196Z,1.40
2022-09-09T10:50:07.092Z,0.90
2022-09-09T10:52:43.800Z,1.15
2022-09-09T10:55:17.410Z,1.20
2022-09-09T10:57:48.771Z,1.10
2022-09-09T11:00:20.880Z,1.10
2022-09-09T11:02:53.490Z,0.82
2022-09-09T11:05:23.953Z,1.40
2022-09-09T11:07:59.686Z,0.95
2022-09-09T11:10:36.691Z,0.93
2022-09-09T11:13:11.761Z,0.85
2022-09-09T11:15:45.847Z,1.17
2022-09-09T11:18:18.761Z,1.20
2022-09-09T11:20:48.618Z,0.90
2022-09-09T11:23:22.802Z,1.25
2022-09-09T11:25:57.908Z,1.42
2022-09-09T11:28:49.662Z,1.00
2022-09-09T11:31:38.172Z,1.10
2022-09-09T11:34:21.286Z,1.58
2022-09-09T11:37:16.997Z,1.13
2022-09-09T11:40:06.795Z,1.17
2022-09-09T11:42:34.749Z,1.55
2022-09-09T11:45:26.645Z,1.48
2022-09-09T11:47:56.452Z,1.08
2022-09-09T11:50:35.496Z,1.27
2022-09-09T11:53:22.011Z,1.17
2022-09-09T11:56:06.702Z,1.75
2022-09-09T11:58:41.741Z,1.65
2022-09-09T12:01:17.704Z,1.40
2022-09-09T12:03:49.531Z,1.55
2022-09-09T12:06:21.185Z,1.50
2022-09-09T12:08:53.983Z,1.50
2022-09-09T12:11:31.582Z,1.65
2022-09-09T12:14:01.765Z,1.40
2022-09-09T12:16:35.505Z,1.80
2022-09-09T12:19:09.447Z,1.52
2022-09-09T12:21:46.726Z,1.50
2022-09-09T12:24:22.295Z,1.35
2022-09-09T12:26:58.878Z,1.17
2022-09-09T12:29:35.170Z,1.75
2022-09-09T12:32:08.093Z,1.95
2022-09-09T12:34:42.014Z,1.90
2022-09-09T12:37:20.346Z,1.73
2022-09-09T12:39:54.013Z,1.60
2022-09-09T12:42:24.388Z,1.60
2022-09-09T12:45:00.163Z,1.33
2022-09-09T12:47:37.186Z,1.48
2022-09-09T12:50:05.850Z,1.52
2022-09-09T12:52:38.309Z,2.17
2022-09-09T12:55:09.347Z,1.00
2022-09-09T12:57:41.310Z,1.38
2022-09-09T13:00:16.973Z,1.55
2022-09-09T13:02:51.222Z,1.13
2022-09-09T13:05:23.523Z,1.25
2022-09-09T13:07:51.421Z,1.52
2022-09-09T13:10:43.094Z,1.50
2022-09-09T13:13:18.814Z,2.08
2022-09-09T13:15:55.892Z,1.88
2022-09-09T13:18:25.783Z,2.00
2022-09-09T13:20:54.389Z,1.40
2022-09-09T13:23:23.204Z,1.88
2022-09-09T13:25:58.496Z,1.50
2022-09-09T13:28:33.656Z,1.92
2022-09-09T13:31:04.430Z,2.47
2022-09-09T13:33:34.741Z,1.80
2022-09-09T13:36:05.784Z,1.33
2022-09-09T13:38:38.431Z,1.13
2022-09-09T13:41:08.246Z,2.03
2022-09-09T13:43:43.938Z,1.40
2022-09-09T13:46:28.887Z,1.23
2022-09-09T13:48:57.602Z,1.38
2022-09-09T13:51:34.305Z,1.50
2022-09-09T13:54:02.134Z,1.58
2022-09-09T13:56:30.210Z,1.70
2022-09-09T13:58:59.367Z,0.80
2022-09-09T14:01:29.727Z,0.88
2022-09-09T14:03:58.190Z,0.82
2022-09-09T14:06:26.007Z,0.93
2022-09-09T14:08:55.431Z,1.15
2022-09-09T14:11:23.393Z,0.75
2022-09-09T14:13:51.828Z,1.17
2022-09-09T14:16:22.840Z,0.63
2022-09-09T14:18:51.520Z,0.40
2022-09-09T14:21:19.628Z,0.50
2022-09-09T14:23:47.557Z,0.90
2022-09-09T14:26:15.442Z,0.85
2022-09-09T14:28:59.001Z,1.08
2022-09-09T14:31:28.682Z,0.85
2022-09-09T14:33:56.503Z,0.70
2022-09-09T14:36:25.235Z,0.70
2022-09-09T14:38:53.099Z,0.88
2022-09-09T14:41:23.492Z,0.70
2022-09-09T14:43:52.559Z,0.77
2022-09-09T14:46:22.274Z,1.08
2022-09-09T14:48:51.905Z,0.88
2022-09-09T14:51:23.196Z,0.80
2022-09-09T14:53:54.861Z,1.25
2022-09-09T14:56:25.389Z,1.10
2022-09-09T14:58:56.163Z,0.93
2022-09-09T15:01:25.156Z,0.60
2022-09-09T15:03:56.351Z,0.70
2022-09-09T15:06:25.031Z,0.60
2022-09-09T15:08:54.888Z,0.63
2022-09-09T15:11:25.592Z,0.60
2022-09-09T15:13:55.482Z,0.70
2022-09-09T15:16:26.707Z,0.57
2022-09-09T15:18:57.588Z,0.93
2022-09-09T15:21:27.006Z,0.90
2022-09-09T15:23:54.833Z,0.80
2022-09-09T15:26:23.411Z,1.08
2022-09-09T15:28:52.019Z,0.52
2022-09-09T15:31:21.891Z,0.65
2022-09-09T15:33:50.783Z,0.50
2022-09-09T15:36:22.859Z,0.70
2022-09-09T15:38:51.470Z,0.63
2022-09-09T15:41:21.023Z,0.40
2022-09-09T15:43:51.253Z,0.40
2022-09-09T15:46:28.776Z,0.50
2022-09-09T15:48:58.319Z,0.90
2022-09-09T15:51:42.355Z,0.90
2022-09-09T15:54:12.970Z,1.27
2022-09-09T15:56:40.959Z,1.20
2022-09-09T15:59:08.962Z,1.00
2022-09-09T16:01:38.776Z,1.15
2022-09-09T16:04:07.333Z,1.52
2022-09-09T16:06:37.306Z,1.88
2022-09-09T16:09:06.789Z,1.60
2022-09-09T16:11:37.609Z,1.55
2022-09-09T16:14:07.558Z,1.33
2022-09-09T16:16:36.855Z,1.45
2022-09-09T16:19:07.277Z,2.03
2022-09-09T16:21:38.869Z,1.90
2022-09-09T16:24:07.741Z,2.45
2022-09-09T16:26:37.709Z,2.42
2022-09-09T16:29:06.795Z,2.10
2022-09-09T16:31:35.052Z,2.35
2022-09-09T16:34:05.455Z,2.50
2022-09-09T16:36:37.500Z,2.17
2022-09-09T16:39:07.698Z,2.38
2022-09-09T16:41:35.490Z,2.50
2022-09-09T16:44:05.147Z,2.30
2022-09-09T16:46:34.985Z,2.22
2022-09-09T16:49:04.628Z,1.90
2022-09-09T16:51:33.795Z,1.95
2022-09-09T16:54:05.189Z,1.75
2022-09-09T16:56:35.466Z,1.98
2022-09-09T16:59:06.067Z,1.98
2022-09-09T17:01:37.977Z,2.30
2022-09-09T17:04:08.244Z,2.25
2022-09-09T17:06:37.643Z,1.88
2022-09-09T17:09:09.744Z,1.52
2022-09-09T17:11:38.341Z,1.73
2022-09-09T17:14:08.014Z,2.30
2022-09-09T17:16:36.170Z,1.83
2022-09-09T17:19:05.712Z,2.00
2022-09-09T17:21:34.248Z,1.77
2022-09-09T17:24:02.652Z,1.98
2022-09-09T17:26:34.030Z,2.10
2022-09-09T17:29:02.871Z,2.15
2022-09-09T17:31:33.666Z,1.83
2022-09-09T17:34:02.342Z,1.75
2022-09-09T17:36:32.102Z,1.63
2022-09-09T17:39:01.422Z,2.30
2022-09-09T17:41:33.231Z,1.85
2022-09-09T17:44:01.371Z,2.05
2022-09-09T17:46:32.509Z,1.90
2022-09-09T17:49:02.193Z,2.47
2022-09-09T17:51:31.989Z,2.65
2022-09-09T17:54:02.234Z,2.22
2022-09-09T17:56:34.157Z,2.20
2022-09-09T17:59:03.874Z,1.70
2022-09-09T18:01:33.777Z,1.80
2022-09-09T18:04:03.481Z,1.60
2022-09-09T18:06:34.950Z,2.25
2022-09-09T18:09:05.400Z,2.00
2022-09-09T18:11:38.713Z,1.92
2022-09-09T18:14:07.125Z,1.83
2022-09-09T18:16:36.071Z,1.95
2022-09-09T18:19:06.926Z,1.58
2022-09-09T18:21:35.441Z,2.30
2022-09-09T18:24:05.909Z,2.40
2022-09-09T18:26:36.431Z,1.83
2022-09-09T18:29:08.225Z,2.05
2022-09-09T18:31:38.245Z,1.67
2022-09-09T18:34:08.145Z,1.80
2022-09-09T18:36:38.666Z,1.65
2022-09-09T18:39:08.757Z,1.40
2022-09-09T18:41:39.452Z,1.75
2022-09-09T18:44:09.248Z,1.60
2022-09-09T18:46:39.782Z,1.75
2022-09-09T18:49:08.248Z,1.55
2022-09-09T18:51:37.049Z,1.25
2022-09-09T18:54:07.836Z,1.58
2022-09-09T18:56:37.630Z,1.33
2022-09-09T18:59:08.019Z,1.20
2022-09-09T19:01:36.527Z,1.55
2022-09-09T19:04:06.086Z,1.50
2022-09-09T19:06:35.269Z,1.95
2022-09-09T19:09:04.977Z,2.08
2022-09-09T19:11:34.450Z,1.27
2022-09-09T19:14:05.301Z,1.73
2022-09-09T19:16:34.859Z,1.40
2022-09-09T19:19:06.082Z,1.55
2022-09-09T19:21:35.684Z,2.10
2022-09-09T19:24:06.563Z,1.75
2022-09-09T19:26:40.321Z,1.30
2022-09-09T19:29:12.261Z,1.90
2022-09-09T19:31:41.525Z,2.03
2022-09-09T19:34:14.022Z,1.58
2022-09-09T19:36:42.962Z,2.15
2022-09-09T19:39:11.808Z,1.80
2022-09-09T19:41:39.755Z,1.20
2022-09-09T19:44:11.940Z,1.60
2022-09-09T19:46:42.481Z,1.52
2022-09-09T19:49:10.857Z,1.50
2022-09-09T19:51:38.605Z,1.30
2022-09-09T19:54:09.495Z,1.50
2022-09-09T19:56:39.233Z,1.50
2022-09-09T19:59:09.444Z,1.60
2022-09-09T20:01:40.987Z,2.20
2022-09-09T20:04:09.797Z,1.58
2022-09-09T20:06:39.688Z,1.70
2022-09-09T20:09:10.436Z,1.55
2022-09-09T20:11:39.161Z,1.40
2022-09-09T20:14:07.330Z,2.10
2022-09-09T20:16:35.340Z,1.50
2022-09-09T20:19:07.012Z,1.30
2022-09-09T20:21:38.284Z,1.70
2022-09-09T20:24:08.889Z,2.05
2022-09-09T20:26:37.680Z,1.55
2022-09-09T20:29:07.627Z,2.28
2022-09-09T20:31:40.004Z,1.65
2022-09-09T20:34:11.360Z,1.77
2022-09-09T20:36:39.753Z,1.90
2022-09-09T20:39:10.552Z,1.83
2022-09-09T20:41:40.527Z,1.58
2022-09-09T20:44:14.171Z,2.00
2022-09-09T20:46:44.209Z,1.85
2022-09-09T20:49:13.486Z,1.60
2022-09-09T20:51:41.250Z,1.88
2022-09-09T20:54:12.103Z,1.90
2022-09-09T20:56:42.830Z,1.90
2022-09-09T20:59:13.610Z,1.95
2022-09-09T21:01:42.417Z,1.50
2022-09-09T21:04:10.653Z,1.60
2022-09-09T21:06:39.987Z,1.88
2022-09-09T21:09:08.068Z,2.08
2022-09-09T21:11:35.931Z,2.13
2022-09-09T21:14:04.005Z,1.30
2022-09-09T21:16:32.352Z,1.80
2022-09-09T21:19:00.154Z,1.88
2022-09-09T21:21:28.424Z,1.77
2022-09-09T21:23:58.973Z,1.70
2022-09-09T21:26:27.632Z,1.70
2022-09-09T21:28:55.991Z,1.77
2022-09-09T21:31:27.819Z,1.92
2022-09-09T21:33:56.326Z,2.30
2022-09-09T21:36:24.285Z,1.90
2022-09-09T21:38:52.652Z,2.00
2022-09-09T21:41:21.777Z,1.83
2022-09-09T21:43:53.945Z,2.33
2022-09-09T21:46:23.453Z,1.83
2022-09-09T21:48:51.596Z,1.73
2022-09-09T21:51:19.918Z,1.65
2022-09-09T21:53:47.795Z,1.73
2022-09-09T21:56:17.557Z,2.65
2022-09-09T21:58:47.168Z,1.83
2022-09-09T22:01:17.110Z,2.67
2022-09-09T22:03:46.499Z,2.70
2022-09-09T22:06:16.123Z,3.17
2022-09-09T22:08:44.239Z,2.85
2022-09-09T22:11:14.522Z,3.03
2022-09-09T22:13:43.029Z,2.40
2022-09-09T22:16:14.544Z,3.10
2022-09-09T22:18:42.775Z,3.25
2022-09-09T22:21:12.257Z,3.38
2022-09-09T22:23:40.323Z,3.33
2022-09-09T22:26:08.544Z,3.40
2022-09-09T22:28:38.349Z,4.35
2022-09-09T22:31:06.583Z,4.18
2022-09-09T22:33:37.136Z,4.82
2022-09-09T22:36:05.742Z,4.45
2022-09-09T22:38:36.572Z,4.60
2022-09-09T22:41:05.012Z,4.38
2022-09-09T22:43:33.915Z,4.57
2022-09-09T22:46:02.407Z,4.75
2022-09-09T22:48:35.220Z,4.82
2022-09-09T22:51:04.331Z,4.80
2022-09-09T22:53:33.046Z,4.80
2022-09-09T22:56:02.550Z,4.80
2022-09-09T22:58:32.509Z,5.00
2022-09-09T23:01:01.363Z,4.38
2022-09-09T23:03:30.563Z,4.55
2022-09-09T23:06:01.605Z,3.78
2022-09-09T23:08:33.413Z,4.47
2022-09-09T23:11:01.668Z,3.90
2022-09-09T23:13:32.837Z,3.35
2022-09-09T23:16:03.822Z,3.95
2022-09-09T23:18:33.628Z,4.60
2022-09-09T23:21:03.330Z,3.83
2022-09-09T23:23:31.086Z,3.05
2022-09-09T23:26:03.117Z,3.65
2022-09-09T23:28:32.415Z,3.25
2022-09-09T23:31:00.680Z,3.88
2022-09-09T23:33:29.027Z,3.40
2022-09-09T23:36:02.246Z,3.85
2022-09-09T23:38:30.370Z,3.42
2022-09-09T23:41:01.620Z,3.20
2022-09-09T23:43:29.724Z,2.95
2022-09-09T23:45:57.879Z,2.67
2022-09-09T23:48:27.138Z,2.55
2022-09-09T23:50:55.196Z,2.53
2022-09-09T23:53:24.301Z,3.20
2022-09-09T23:55:52.040Z,2.58
2022-09-09T23:58:20.380Z,2.28
